sensor_id;sensor_type;location;lat;lon;timestamp;pressure;altitude;pressure_sealevel;temperature;humidity
50774;BME280;36745;48.544;8.918;2023-03-13T00:01:55;96874.09;;;5.84;90.27
50774;BME280;36745;48.544;8.918;2023-03-13T00:05:15;96869.00;;;5.86;89.82
50774;BME280;36745;48.544;8.918;2023-03-13T00:08:35;96869.13;;;5.79;90.10
50774;BME280;36745;48.544;8.918;2023-03-13T00:11:54;96869.50;;;5.81;90.50
50774;BME280;36745;48.544;8.918;2023-03-13T00:15:14;96872.59;;;5.83;90.70
50774;BME280;36745;48.544;8.918;2023-03-13T00:18:35;96868.63;;;5.84;90.97
50774;BME280;36745;48.544;8.918;2023-03-13T00:21:55;96877.94;;;5.90;91.01
50774;BME280;36745;48.544;8.918;2023-03-13T00:25:14;96872.47;;;5.90;90.71
50774;BME280;36745;48.544;8.918;2023-03-13T00:28:36;96876.03;;;5.87;91.12
50774;BME280;36745;48.544;8.918;2023-03-13T00:31:55;96882.69;;;5.86;91.17
50774;BME280;36745;48.544;8.918;2023-03-13T00:35:15;96878.63;;;5.94;91.50
50774;BME280;36745;48.544;8.918;2023-03-13T00:38:35;96870.78;;;5.96;91.59
50774;BME280;36745;48.544;8.918;2023-03-13T00:41:55;96870.66;;;6.03;91.93
50774;BME280;36745;48.544;8.918;2023-03-13T00:45:15;96869.78;;;6.06;91.86
50774;BME280;36745;48.544;8.918;2023-03-13T00:48:35;96864.97;;;6.14;91.75
50774;BME280;36745;48.544;8.918;2023-03-13T00:51:54;96872.41;;;6.13;91.28
50774;BME280;36745;48.544;8.918;2023-03-13T00:55:14;96859.63;;;6.07;91.26
50774;BME280;36745;48.544;8.918;2023-03-13T00:58:36;96865.97;;;6.04;91.55
50774;BME280;36745;48.544;8.918;2023-03-13T01:01:56;96853.47;;;6.03;91.54
50774;BME280;36745;48.544;8.918;2023-03-13T01:05:16;96853.88;;;6.01;91.62
50774;BME280;36745;48.544;8.918;2023-03-13T01:08:36;96843.13;;;6.10;91.90
50774;BME280;36745;48.544;8.918;2023-03-13T01:11:56;96836.31;;;6.18;91.68
50774;BME280;36745;48.544;8.918;2023-03-13T01:15:16;96836.41;;;6.15;91.51
50774;BME280;36745;48.544;8.918;2023-03-13T01:18:40;96830.16;;;6.14;91.81
50774;BME280;36745;48.544;8.918;2023-03-13T01:22:00;96825.97;;;6.10;91.70
50774;BME280;36745;48.544;8.918;2023-03-13T01:25:20;96820.03;;;6.11;91.78
50774;BME280;36745;48.544;8.918;2023-03-13T01:28:40;96819.22;;;6.14;92.22
50774;BME280;36745;48.544;8.918;2023-03-13T01:31:59;96811.00;;;6.14;91.87
50774;BME280;36745;48.544;8.918;2023-03-13T01:35:19;96805.19;;;6.12;92.32
50774;BME280;36745;48.544;8.918;2023-03-13T01:38:39;96804.19;;;6.22;92.33
50774;BME280;36745;48.544;8.918;2023-03-13T01:41:59;96791.34;;;6.19;92.57
50774;BME280;36745;48.544;8.918;2023-03-13T01:49:26;96771.72;;;6.41;93.14
50774;BME280;36745;48.544;8.918;2023-03-13T01:52:48;96774.97;;;6.52;92.93
50774;BME280;36745;48.544;8.918;2023-03-13T01:56:11;96774.06;;;6.58;93.01
50774;BME280;36745;48.544;8.918;2023-03-13T01:59:36;96760.44;;;6.71;92.81
50774;BME280;36745;48.544;8.918;2023-03-13T02:03:02;96770.28;;;6.85;92.59
50774;BME280;36745;48.544;8.918;2023-03-13T02:06:25;96766.25;;;6.89;92.24
50774;BME280;36745;48.544;8.918;2023-03-13T02:09:49;96761.34;;;6.97;92.10
50774;BME280;36745;48.544;8.918;2023-03-13T02:13:11;96755.69;;;7.04;91.84
50774;BME280;36745;48.544;8.918;2023-03-13T02:16:34;96754.09;;;7.06;91.58
50774;BME280;36745;48.544;8.918;2023-03-13T02:19:54;96754.34;;;7.12;91.63
50774;BME280;36745;48.544;8.918;2023-03-13T02:23:32;96755.56;;;7.24;91.31
50774;BME280;36745;48.544;8.918;2023-03-13T02:26:54;96756.78;;;7.23;91.28
50774;BME280;36745;48.544;8.918;2023-03-13T02:30:14;96740.41;;;7.19;91.49
50774;BME280;36745;48.544;8.918;2023-03-13T02:33:41;96730.91;;;7.24;91.40
50774;BME280;36745;48.544;8.918;2023-03-13T02:37:02;96728.41;;;7.29;91.95
50774;BME280;36745;48.544;8.918;2023-03-13T02:40:34;96713.91;;;7.45;91.89
50774;BME280;36745;48.544;8.918;2023-03-13T02:43:54;96696.84;;;7.66;91.58
50774;BME280;36745;48.544;8.918;2023-03-13T02:47:21;96694.00;;;7.82;91.79
50774;BME280;36745;48.544;8.918;2023-03-13T02:50:41;96688.53;;;8.08;91.38
50774;BME280;36745;48.544;8.918;2023-03-13T02:54:05;96688.41;;;8.24;91.23
50774;BME280;36745;48.544;8.918;2023-03-13T02:57:28;96692.28;;;8.39;91.11
50774;BME280;36745;48.544;8.918;2023-03-13T03:00:48;96679.88;;;8.47;90.66
50774;BME280;36745;48.544;8.918;2023-03-13T03:04:08;96674.59;;;8.53;90.34
50774;BME280;36745;48.544;8.918;2023-03-13T03:07:27;96675.31;;;8.53;90.15
50774;BME280;36745;48.544;8.918;2023-03-13T03:10:48;96653.34;;;8.53;90.27
50774;BME280;36745;48.544;8.918;2023-03-13T03:14:09;96650.59;;;8.53;90.07
50774;BME280;36745;48.544;8.918;2023-03-13T03:17:28;96647.75;;;8.57;89.95
50774;BME280;36745;48.544;8.918;2023-03-13T03:20:48;96628.97;;;8.55;90.10
50774;BME280;36745;48.544;8.918;2023-03-13T03:24:08;96628.09;;;8.58;89.77
50774;BME280;36745;48.544;8.918;2023-03-13T03:27:28;96632.81;;;8.58;89.88
50774;BME280;36745;48.544;8.918;2023-03-13T03:30:48;96632.28;;;8.50;89.83
50774;BME280;36745;48.544;8.918;2023-03-13T03:34:08;96640.09;;;8.52;89.71
50774;BME280;36745;48.544;8.918;2023-03-13T03:37:27;96635.59;;;8.45;89.71
50774;BME280;36745;48.544;8.918;2023-03-13T03:40:47;96641.38;;;8.60;90.38
50774;BME280;36745;48.544;8.918;2023-03-13T03:44:07;96633.97;;;8.69;90.18
50774;BME280;36745;48.544;8.918;2023-03-13T03:47:27;96632.00;;;8.70;90.69
50774;BME280;36745;48.544;8.918;2023-03-13T03:50:47;96621.09;;;8.79;91.09
50774;BME280;36745;48.544;8.918;2023-03-13T03:54:07;96631.47;;;8.97;91.96
50774;BME280;36745;48.544;8.918;2023-03-13T03:57:26;96626.25;;;9.11;91.67
50774;BME280;36745;48.544;8.918;2023-03-13T04:00:47;96627.00;;;9.34;92.17
50774;BME280;36745;48.544;8.918;2023-03-13T04:04:06;96623.28;;;9.49;92.51
50774;BME280;36745;48.544;8.918;2023-03-13T04:07:26;96628.25;;;9.63;92.02
50774;BME280;36745;48.544;8.918;2023-03-13T04:10:46;96625.91;;;9.84;91.73
50774;BME280;36745;48.544;8.918;2023-03-13T04:14:06;96631.91;;;9.91;91.92
50774;BME280;36745;48.544;8.918;2023-03-13T04:17:26;96625.06;;;10.05;91.52
50774;BME280;36745;48.544;8.918;2023-03-13T04:20:45;96613.44;;;10.01;91.67
50774;BME280;36745;48.544;8.918;2023-03-13T04:24:05;96617.13;;;10.07;91.57
50774;BME280;36745;48.544;8.918;2023-03-13T04:27:25;96621.09;;;10.06;91.94
50774;BME280;36745;48.544;8.918;2023-03-13T04:30:45;96623.06;;;10.05;92.73
50774;BME280;36745;48.544;8.918;2023-03-13T04:34:04;96637.34;;;10.13;91.91
50774;BME280;36745;48.544;8.918;2023-03-13T04:37:24;96617.75;;;10.11;92.16
50774;BME280;36745;48.544;8.918;2023-03-13T04:40:45;96624.84;;;10.21;92.36
50774;BME280;36745;48.544;8.918;2023-03-13T04:44:05;96611.13;;;10.30;92.17
50774;BME280;36745;48.544;8.918;2023-03-13T04:47:25;96612.31;;;10.29;91.88
50774;BME280;36745;48.544;8.918;2023-03-13T04:50:46;96606.94;;;10.26;92.78
50774;BME280;36745;48.544;8.918;2023-03-13T04:54:06;96602.19;;;10.17;93.71
50774;BME280;36745;48.544;8.918;2023-03-13T04:57:26;96601.59;;;10.31;93.15
50774;BME280;36745;48.544;8.918;2023-03-13T05:00:46;96591.84;;;10.30;93.36
50774;BME280;36745;48.544;8.918;2023-03-13T05:04:06;96600.38;;;10.32;93.33
50774;BME280;36745;48.544;8.918;2023-03-13T05:07:26;96600.09;;;10.30;93.45
50774;BME280;36745;48.544;8.918;2023-03-13T05:10:46;96598.56;;;10.38;93.12
50774;BME280;36745;48.544;8.918;2023-03-13T05:14:05;96601.94;;;10.42;92.90
50774;BME280;36745;48.544;8.918;2023-03-13T05:17:28;96609.91;;;10.40;93.25
50774;BME280;36745;48.544;8.918;2023-03-13T05:20:48;96603.31;;;10.38;93.28
50774;BME280;36745;48.544;8.918;2023-03-13T05:24:07;96603.19;;;10.50;93.09
50774;BME280;36745;48.544;8.918;2023-03-13T05:27:27;96610.19;;;10.42;93.06
50774;BME280;36745;48.544;8.918;2023-03-13T05:30:47;96611.13;;;10.48;92.85
50774;BME280;36745;48.544;8.918;2023-03-13T05:34:07;96606.56;;;10.55;92.78
50774;BME280;36745;48.544;8.918;2023-03-13T05:37:26;96590.94;;;10.51;92.71
50774;BME280;36745;48.544;8.918;2023-03-13T05:40:46;96597.22;;;10.52;92.73
50774;BME280;36745;48.544;8.918;2023-03-13T05:44:06;96612.69;;;10.59;92.72
50774;BME280;36745;48.544;8.918;2023-03-13T05:47:26;96614.09;;;10.63;91.86
50774;BME280;36745;48.544;8.918;2023-03-13T05:50:46;96607.16;;;10.59;92.08
50774;BME280;36745;48.544;8.918;2023-03-13T05:54:06;96605.66;;;10.58;92.53
50774;BME280;36745;48.544;8.918;2023-03-13T05:57:25;96606.56;;;10.55;93.11
50774;BME280;36745;48.544;8.918;2023-03-13T06:00:48;96588.03;;;10.64;92.94
50774;BME280;36745;48.544;8.918;2023-03-13T06:04:18;96586.06;;;10.74;92.31
50774;BME280;36745;48.544;8.918;2023-03-13T06:07:38;96590.94;;;10.70;92.75
50774;BME280;36745;48.544;8.918;2023-03-13T06:10:59;96595.56;;;10.73;92.36
50774;BME280;36745;48.544;8.918;2023-03-13T06:14:19;96588.97;;;10.70;92.44
50774;BME280;36745;48.544;8.918;2023-03-13T06:17:38;96588.06;;;10.73;92.59
50774;BME280;36745;48.544;8.918;2023-03-13T06:21:00;96587.75;;;10.71;92.87
50774;BME280;36745;48.544;8.918;2023-03-13T06:24:20;96591.13;;;10.84;92.95
50774;BME280;36745;48.544;8.918;2023-03-13T06:27:40;96602.16;;;10.84;92.73
50774;BME280;36745;48.544;8.918;2023-03-13T06:31:02;96594.47;;;10.98;92.48
50774;BME280;36745;48.544;8.918;2023-03-13T06:34:23;96595.25;;;10.98;92.38
50774;BME280;36745;48.544;8.918;2023-03-13T06:37:45;96596.94;;;11.05;92.78
50774;BME280;36745;48.544;8.918;2023-03-13T06:41:05;96609.50;;;11.15;92.81
50774;BME280;36745;48.544;8.918;2023-03-13T06:44:25;96620.22;;;11.22;92.47
50774;BME280;36745;48.544;8.918;2023-03-13T06:47:45;96611.47;;;11.23;92.27
50774;BME280;36745;48.544;8.918;2023-03-13T06:51:10;96599.53;;;11.26;92.17
50774;BME280;36745;48.544;8.918;2023-03-13T06:54:30;96590.78;;;11.28;92.32
50774;BME280;36745;48.544;8.918;2023-03-13T06:57:51;96598.75;;;11.26;92.19
50774;BME280;36745;48.544;8.918;2023-03-13T07:01:12;96602.72;;;11.25;92.17
50774;BME280;36745;48.544;8.918;2023-03-13T07:04:33;96599.81;;;11.28;92.23
50774;BME280;36745;48.544;8.918;2023-03-13T07:07:52;96604.72;;;11.33;92.19
50774;BME280;36745;48.544;8.918;2023-03-13T07:11:13;96603.34;;;11.38;91.92
50774;BME280;36745;48.544;8.918;2023-03-13T07:14:33;96613.44;;;11.41;92.19
50774;BME280;36745;48.544;8.918;2023-03-13T07:17:55;96610.22;;;11.43;92.03
50774;BME280;36745;48.544;8.918;2023-03-13T07:21:15;96617.25;;;11.53;92.18
50774;BME280;36745;48.544;8.918;2023-03-13T07:24:35;96606.81;;;11.57;92.20
50774;BME280;36745;48.544;8.918;2023-03-13T07:27:55;96611.69;;;11.62;92.23
50774;BME280;36745;48.544;8.918;2023-03-13T07:31:19;96598.34;;;11.69;91.87
50774;BME280;36745;48.544;8.918;2023-03-13T07:34:40;96599.09;;;11.79;92.23
50774;BME280;36745;48.544;8.918;2023-03-13T07:38:02;96603.41;;;11.80;91.96
50774;BME280;36745;48.544;8.918;2023-03-13T07:41:22;96595.06;;;11.89;91.45
50774;BME280;36745;48.544;8.918;2023-03-13T07:44:42;96593.03;;;11.99;91.30
50774;BME280;36745;48.544;8.918;2023-03-13T07:48:02;96588.47;;;11.96;90.93
50774;BME280;36745;48.544;8.918;2023-03-13T07:51:23;96575.09;;;12.03;91.14
50774;BME280;36745;48.544;8.918;2023-03-13T07:54:44;96568.91;;;12.08;90.78
50774;BME280;36745;48.544;8.918;2023-03-13T07:58:04;96558.03;;;12.05;90.36
50774;BME280;36745;48.544;8.918;2023-03-13T08:01:25;96557.91;;;11.99;90.64
50774;BME280;36745;48.544;8.918;2023-03-13T08:04:45;96558.78;;;12.05;90.77
50774;BME280;36745;48.544;8.918;2023-03-13T08:08:05;96564.16;;;12.09;90.94
50774;BME280;36745;48.544;8.918;2023-03-13T08:11:27;96545.94;;;12.02;90.80
50774;BME280;36745;48.544;8.918;2023-03-13T08:14:47;96525.47;;;12.09;90.82
50774;BME280;36745;48.544;8.918;2023-03-13T08:18:07;96499.38;;;12.10;90.38
50774;BME280;36745;48.544;8.918;2023-03-13T08:21:29;96511.59;;;12.18;90.65
50774;BME280;36745;48.544;8.918;2023-03-13T08:24:49;96515.06;;;12.28;90.09
50774;BME280;36745;48.544;8.918;2023-03-13T08:28:09;96522.34;;;12.40;89.75
50774;BME280;36745;48.544;8.918;2023-03-13T08:31:38;96523.91;;;12.41;89.30
50774;BME280;36745;48.544;8.918;2023-03-13T08:35:00;96514.53;;;12.38;88.78
50774;BME280;36745;48.544;8.918;2023-03-13T08:38:20;96530.66;;;12.40;88.61
50774;BME280;36745;48.544;8.918;2023-03-13T08:41:40;96513.41;;;12.45;89.27
50774;BME280;36745;48.544;8.918;2023-03-13T08:44:59;96528.78;;;12.46;88.89
50774;BME280;36745;48.544;8.918;2023-03-13T08:48:19;96527.16;;;12.54;88.70
50774;BME280;36745;48.544;8.918;2023-03-13T08:51:39;96529.28;;;12.59;88.58
50774;BME280;36745;48.544;8.918;2023-03-13T08:54:59;96529.88;;;12.63;88.82
50774;BME280;36745;48.544;8.918;2023-03-13T08:58:19;96534.84;;;12.74;87.71
50774;BME280;36745;48.544;8.918;2023-03-13T09:01:38;96526.66;;;12.79;88.12
50774;BME280;36745;48.544;8.918;2023-03-13T09:04:58;96532.22;;;12.94;87.66
50774;BME280;36745;48.544;8.918;2023-03-13T09:08:18;96536.69;;;12.91;87.20
50774;BME280;36745;48.544;8.918;2023-03-13T09:11:38;96540.44;;;13.03;87.17
50774;BME280;36745;48.544;8.918;2023-03-13T09:14:58;96535.28;;;13.11;87.10
50774;BME280;36745;48.544;8.918;2023-03-13T09:18:18;96537.03;;;13.23;86.66
50774;BME280;36745;48.544;8.918;2023-03-13T09:21:38;96535.31;;;13.40;87.10
50774;BME280;36745;48.544;8.918;2023-03-13T09:24:57;96529.38;;;13.62;86.26
50774;BME280;36745;48.544;8.918;2023-03-13T09:28:17;96522.09;;;13.79;84.87
50774;BME280;36745;48.544;8.918;2023-03-13T09:31:37;96532.38;;;13.93;83.53
50774;BME280;36745;48.544;8.918;2023-03-13T09:34:57;96537.28;;;14.18;83.38
50774;BME280;36745;48.544;8.918;2023-03-13T09:38:19;96533.97;;;14.35;81.41
50774;BME280;36745;48.544;8.918;2023-03-13T09:41:52;96521.31;;;14.48;79.39
50774;BME280;36745;48.544;8.918;2023-03-13T09:45:28;96523.69;;;14.55;78.79
50774;BME280;36745;48.544;8.918;2023-03-13T09:49:04;96528.38;;;14.69;78.86
50774;BME280;36745;48.544;8.918;2023-03-13T09:52:33;96528.44;;;14.75;77.27
50774;BME280;36745;48.544;8.918;2023-03-13T09:55:56;96513.16;;;14.85;76.38
50774;BME280;36745;48.544;8.918;2023-03-13T09:59:41;96514.22;;;14.88;75.94
50774;BME280;36745;48.544;8.918;2023-03-13T10:06:37;96501.59;;;15.12;75.82
50774;BME280;36745;48.544;8.918;2023-03-13T10:10:00;96505.50;;;15.26;74.14
50774;BME280;36745;48.544;8.918;2023-03-13T10:13:32;96506.44;;;15.43;74.79
50774;BME280;36745;48.544;8.918;2023-03-13T10:23:58;96491.97;;;15.39;72.18
50774;BME280;36745;48.544;8.918;2023-03-13T10:27:21;96484.38;;;15.34;70.74
50774;BME280;36745;48.544;8.918;2023-03-13T10:30:56;96480.66;;;15.43;71.94
50774;BME280;36745;48.544;8.918;2023-03-13T10:34:17;96474.47;;;15.53;72.46
50774;BME280;36745;48.544;8.918;2023-03-13T10:37:42;96461.47;;;15.71;72.44
50774;BME280;36745;48.544;8.918;2023-03-13T10:41:37;96458.41;;;15.69;71.68
50774;BME280;36745;48.544;8.918;2023-03-13T10:45:01;96445.75;;;15.68;70.92
50774;BME280;36745;48.544;8.918;2023-03-13T10:48:28;96436.19;;;15.69;70.56
50774;BME280;36745;48.544;8.918;2023-03-13T10:51:54;96439.75;;;15.75;70.55
50774;BME280;36745;48.544;8.918;2023-03-13T10:58:43;96415.75;;;15.77;68.92
50774;BME280;36745;48.544;8.918;2023-03-13T11:05:41;96364.00;;;15.80;67.73
50774;BME280;36745;48.544;8.918;2023-03-13T11:09:13;96381.75;;;15.99;68.74
50774;BME280;36745;48.544;8.918;2023-03-13T11:12:34;96367.78;;;16.53;68.92
50774;BME280;36745;48.544;8.918;2023-03-13T11:15:57;96377.47;;;16.85;67.95
50774;BME280;36745;48.544;8.918;2023-03-13T11:22:54;96349.34;;;18.30;64.48
50774;BME280;36745;48.544;8.918;2023-03-13T11:33:37;96314.75;;;19.39;55.79
50774;BME280;36745;48.544;8.918;2023-03-13T11:37:14;96303.09;;;18.40;57.78
50774;BME280;36745;48.544;8.918;2023-03-13T11:56:14;96242.59;;;21.59;52.82
50774;BME280;36745;48.544;8.918;2023-03-13T12:03:19;96233.63;;;20.44;51.88
50774;BME280;36745;48.544;8.918;2023-03-13T12:06:59;96222.84;;;20.67;50.21
50774;BME280;36745;48.544;8.918;2023-03-13T12:10:29;96211.88;;;20.82;50.70
50774;BME280;36745;48.544;8.918;2023-03-13T12:13:56;96195.81;;;20.82;50.61
50774;BME280;36745;48.544;8.918;2023-03-13T12:17:39;96203.09;;;21.44;49.44
50774;BME280;36745;48.544;8.918;2023-03-13T12:24:48;96181.94;;;21.56;49.17
50774;BME280;36745;48.544;8.918;2023-03-13T12:28:20;96172.91;;;21.50;47.75
50774;BME280;36745;48.544;8.918;2023-03-13T12:31:51;96155.91;;;21.21;47.76
50774;BME280;36745;48.544;8.918;2023-03-13T12:39:39;96133.03;;;21.04;48.21
50774;BME280;36745;48.544;8.918;2023-03-13T13:00:53;96075.06;;;20.99;47.37
50774;BME280;36745;48.544;8.918;2023-03-13T13:04:21;96062.13;;;20.70;47.57
50774;BME280;36745;48.544;8.918;2023-03-13T13:07:52;96054.88;;;21.01;48.00
50774;BME280;36745;48.544;8.918;2023-03-13T13:14:59;96031.53;;;20.59;46.17
50774;BME280;36745;48.544;8.918;2023-03-13T13:18:30;96018.97;;;20.20;47.35
50774;BME280;36745;48.544;8.918;2023-03-13T13:25:48;96005.00;;;20.07;47.99
50774;BME280;36745;48.544;8.918;2023-03-13T13:32:34;95995.28;;;19.95;47.57
50774;BME280;36745;48.544;8.918;2023-03-13T13:43:00;95967.34;;;20.08;47.72
50774;BME280;36745;48.544;8.918;2023-03-13T13:46:32;95973.44;;;20.20;47.97
50774;BME280;36745;48.544;8.918;2023-03-13T13:49:58;95960.47;;;20.35;47.94
50774;BME280;36745;48.544;8.918;2023-03-13T13:53:51;95956.38;;;20.23;48.08
50774;BME280;36745;48.544;8.918;2023-03-13T13:57:28;95945.16;;;20.23;48.10
50774;BME280;36745;48.544;8.918;2023-03-13T14:00:57;95942.16;;;20.21;48.00
50774;BME280;36745;48.544;8.918;2023-03-13T14:04:26;95937.72;;;20.26;48.12
50774;BME280;36745;48.544;8.918;2023-03-13T14:07:54;95933.53;;;20.19;47.96
50774;BME280;36745;48.544;8.918;2023-03-13T14:11:29;95930.94;;;20.21;47.94
50774;BME280;36745;48.544;8.918;2023-03-13T14:18:40;95927.97;;;20.45;48.14
50774;BME280;36745;48.544;8.918;2023-03-13T14:22:09;95915.50;;;20.33;46.95
50774;BME280;36745;48.544;8.918;2023-03-13T14:29:01;95891.78;;;20.21;45.42
50774;BME280;36745;48.544;8.918;2023-03-13T14:32:25;95888.34;;;20.28;45.88
50774;BME280;36745;48.544;8.918;2023-03-13T14:35:46;95888.25;;;20.34;45.90
50774;BME280;36745;48.544;8.918;2023-03-13T14:39:05;95877.34;;;20.30;45.76
50774;BME280;36745;48.544;8.918;2023-03-13T14:42:25;95871.88;;;20.38;45.94
50774;BME280;36745;48.544;8.918;2023-03-13T14:45:45;95859.28;;;20.31;45.36
50774;BME280;36745;48.544;8.918;2023-03-13T14:49:21;95850.66;;;20.29;45.62
50774;BME280;36745;48.544;8.918;2023-03-13T14:52:46;95836.59;;;20.35;45.78
50774;BME280;36745;48.544;8.918;2023-03-13T14:56:16;95826.34;;;20.37;45.69
50774;BME280;36745;48.544;8.918;2023-03-13T14:59:37;95830.19;;;20.47;45.83
50774;BME280;36745;48.544;8.918;2023-03-13T15:06:35;95811.47;;;20.42;45.86
50774;BME280;36745;48.544;8.918;2023-03-13T15:09:55;95804.69;;;20.38;46.17
50774;BME280;36745;48.544;8.918;2023-03-13T15:16:38;95782.88;;;20.23;45.79
50774;BME280;36745;48.544;8.918;2023-03-13T15:19:58;95786.09;;;20.14;46.15
50774;BME280;36745;48.544;8.918;2023-03-13T15:23:18;95770.06;;;20.15;46.26
50774;BME280;36745;48.544;8.918;2023-03-13T15:26:39;95768.56;;;20.13;46.72
50774;BME280;36745;48.544;8.918;2023-03-13T15:29:58;95757.94;;;20.12;47.07
50774;BME280;36745;48.544;8.918;2023-03-13T15:33:23;95737.19;;;20.07;46.83
50774;BME280;36745;48.544;8.918;2023-03-13T15:36:46;95725.88;;;20.00;47.25
50774;BME280;36745;48.544;8.918;2023-03-13T15:40:12;95713.88;;;19.92;47.23
50774;BME280;36745;48.544;8.918;2023-03-13T15:43:32;95710.84;;;19.90;47.48
50774;BME280;36745;48.544;8.918;2023-03-13T15:46:52;95707.31;;;19.89;47.75
50774;BME280;36745;48.544;8.918;2023-03-13T15:50:15;95711.63;;;19.77;48.11
50774;BME280;36745;48.544;8.918;2023-03-13T15:53:35;95687.88;;;19.70;48.35
50774;BME280;36745;48.544;8.918;2023-03-13T15:56:55;95685.13;;;19.57;48.43
50774;BME280;36745;48.544;8.918;2023-03-13T16:00:18;95677.78;;;19.41;48.62
50774;BME280;36745;48.544;8.918;2023-03-13T16:03:38;95687.25;;;19.38;48.73
50774;BME280;36745;48.544;8.918;2023-03-13T16:06:58;95675.44;;;19.32;48.98
50774;BME280;36745;48.544;8.918;2023-03-13T16:10:21;95665.97;;;19.35;48.99
50774;BME280;36745;48.544;8.918;2023-03-13T16:13:41;95650.50;;;19.34;49.22
50774;BME280;36745;48.544;8.918;2023-03-13T16:17:02;95651.34;;;19.29;49.44
50774;BME280;36745;48.544;8.918;2023-03-13T16:20:23;95637.63;;;19.18;49.66
50774;BME280;36745;48.544;8.918;2023-03-13T16:23:44;95629.03;;;19.16;49.66
50774;BME280;36745;48.544;8.918;2023-03-13T16:27:11;95618.09;;;19.05;49.95
50774;BME280;36745;48.544;8.918;2023-03-13T16:30:33;95614.22;;;18.95;50.01
50774;BME280;36745;48.544;8.918;2023-03-13T16:33:54;95612.81;;;18.88;50.24
50774;BME280;36745;48.544;8.918;2023-03-13T16:37:16;95602.81;;;18.79;50.37
50774;BME280;36745;48.544;8.918;2023-03-13T16:40:35;95586.59;;;18.65;50.59
50774;BME280;36745;48.544;8.918;2023-03-13T16:43:55;95581.72;;;18.52;50.97
50774;BME280;36745;48.544;8.918;2023-03-13T16:47:21;95585.81;;;18.38;51.08
50774;BME280;36745;48.544;8.918;2023-03-13T16:50:42;95583.44;;;18.29;51.11
50774;BME280;36745;48.544;8.918;2023-03-13T16:54:04;95569.13;;;18.19;51.25
50774;BME280;36745;48.544;8.918;2023-03-13T16:57:25;95567.06;;;18.07;51.39
50774;BME280;36745;48.544;8.918;2023-03-13T17:00:45;95574.34;;;17.96;51.74
50774;BME280;36745;48.544;8.918;2023-03-13T17:04:05;95573.31;;;17.81;52.04
50774;BME280;36745;48.544;8.918;2023-03-13T17:07:24;95572.31;;;17.65;52.61
50774;BME280;36745;48.544;8.918;2023-03-13T17:10:46;95556.00;;;17.50;52.65
50774;BME280;36745;48.544;8.918;2023-03-13T17:14:06;95567.19;;;17.32;53.11
50774;BME280;36745;48.544;8.918;2023-03-13T17:17:32;95557.22;;;17.17;53.56
50774;BME280;36745;48.544;8.918;2023-03-13T17:20:53;95541.50;;;17.01;53.98
50774;BME280;36745;48.544;8.918;2023-03-13T17:24:13;95529.22;;;16.91;54.15
50774;BME280;36745;48.544;8.918;2023-03-13T17:27:33;95544.72;;;16.87;54.48
50774;BME280;36745;48.544;8.918;2023-03-13T17:30:53;95545.16;;;16.72;54.64
50774;BME280;36745;48.544;8.918;2023-03-13T17:34:13;95533.22;;;16.53;55.22
50774;BME280;36745;48.544;8.918;2023-03-13T17:37:34;95526.28;;;16.41;56.08
50774;BME280;36745;48.544;8.918;2023-03-13T17:40:53;95504.59;;;16.33;56.55
50774;BME280;36745;48.544;8.918;2023-03-13T17:44:13;95503.22;;;16.21;56.92
50774;BME280;36745;48.544;8.918;2023-03-13T17:47:33;95488.91;;;16.12;57.08
50774;BME280;36745;48.544;8.918;2023-03-13T17:50:53;95484.97;;;16.02;57.41
50774;BME280;36745;48.544;8.918;2023-03-13T17:54:13;95479.19;;;16.00;57.42
50774;BME280;36745;48.544;8.918;2023-03-13T17:57:32;95457.59;;;15.87;58.01
50774;BME280;36745;48.544;8.918;2023-03-13T18:00:52;95432.66;;;15.81;58.22
50774;BME280;36745;48.544;8.918;2023-03-13T18:04:12;95431.41;;;15.77;59.04
50774;BME280;36745;48.544;8.918;2023-03-13T18:07:32;95432.00;;;15.70;59.17
50774;BME280;36745;48.544;8.918;2023-03-13T18:10:51;95437.19;;;15.55;59.90
50774;BME280;36745;48.544;8.918;2023-03-13T18:14:11;95432.66;;;15.51;59.74
50774;BME280;36745;48.544;8.918;2023-03-13T18:17:31;95413.53;;;15.42;60.34
50774;BME280;36745;48.544;8.918;2023-03-13T18:20:51;95398.25;;;15.30;61.01
50774;BME280;36745;48.544;8.918;2023-03-13T18:24:11;95357.72;;;15.22;60.63
50774;BME280;36745;48.544;8.918;2023-03-13T18:27:32;95433.94;;;15.15;62.41
50774;BME280;36745;48.544;8.918;2023-03-13T18:30:51;95507.13;;;15.12;62.54
50774;BME280;36745;48.544;8.918;2023-03-13T18:34:11;95594.16;;;15.20;63.01
50774;BME280;36745;48.544;8.918;2023-03-13T18:37:31;95663.91;;;15.46;70.25
50774;BME280;36745;48.544;8.918;2023-03-13T18:40:51;95662.34;;;14.99;73.97
50774;BME280;36745;48.544;8.918;2023-03-13T18:44:11;95594.78;;;14.91;70.01
50774;BME280;36745;48.544;8.918;2023-03-13T18:47:34;95529.78;;;14.75;71.41
50774;BME280;36745;48.544;8.918;2023-03-13T18:50:54;95563.91;;;14.53;73.20
50774;BME280;36745;48.544;8.918;2023-03-13T18:54:14;95530.13;;;14.49;73.36
50774;BME280;36745;48.544;8.918;2023-03-13T18:57:34;95516.75;;;14.53;73.24
50774;BME280;36745;48.544;8.918;2023-03-13T19:00:54;95522.59;;;14.44;74.44
50774;BME280;36745;48.544;8.918;2023-03-13T19:04:14;95485.31;;;14.34;76.00
50774;BME280;36745;48.544;8.918;2023-03-13T19:07:34;95471.75;;;14.25;76.27
50774;BME280;36745;48.544;8.918;2023-03-13T19:11:04;95477.31;;;14.14;77.76
50774;BME280;36745;48.544;8.918;2023-03-13T19:14:24;95474.81;;;14.05;79.13
50774;BME280;36745;48.544;8.918;2023-03-13T19:17:45;95490.69;;;13.99;78.58
50774;BME280;36745;48.544;8.918;2023-03-13T19:21:14;95487.72;;;13.80;80.54
50774;BME280;36745;48.544;8.918;2023-03-13T19:24:34;95476.13;;;13.81;80.23
50774;BME280;36745;48.544;8.918;2023-03-13T19:27:53;95524.22;;;13.84;79.01
50774;BME280;36745;48.544;8.918;2023-03-13T19:31:14;95521.69;;;13.80;80.87
50774;BME280;36745;48.544;8.918;2023-03-13T19:34:34;95511.13;;;13.73;80.26
50774;BME280;36745;48.544;8.918;2023-03-13T19:37:54;95505.59;;;13.62;83.02
50774;BME280;36745;48.544;8.918;2023-03-13T19:41:14;95565.50;;;13.54;84.24
50774;BME280;36745;48.544;8.918;2023-03-13T19:44:34;95662.41;;;13.60;81.51